Archival Weather

Chicago O'hare International

Chicago O'hare International, Illinois (KORD)

Report from: Saturday, May 14, 2022 6:51 AM CDT
Current time: Monday, May 23, 2022 3:26 AM CDT

Current weather
Weather history
Weather forecast

Temperature21.1°C (70.0°F)
Dew point15.6°C (60.1°F)
Winds Calm
Visibility10 mi. (16.1 km)
Clouds Scattered clouds 10,000 ft. (3,048 m)
Scattered clouds 25,000 ft. (7,620 m)
Altimeter29.93 in.Hg (1014 mB)
Relative humidity71 %
Density altitude947 ft. (289 m)
Sea-level pressure101.3 kPa (1013 mB, 29.91 in.Hg)
Max temp last 6 hours22.8°C (73.0°F)
Min temp last 6 hours19.4°C (66.9°F)
Remarks Automated weather observing station with precipitation discriminator
Pressure rising more quickly
Flight conditions Visual Meteorological Conditions
Raw dataKORD 141151Z 00000KT 10SM SCT100 SCT250 21/16 A2993 RMK AO2 SLP128 T02110156 10228 20194 53010
An error has occurred. This application may no longer respond until reloaded. Reload 🗙